»·PEaware :: N802SB KLAX-KSAN

N802SB :: KLAX-KSAN

FLIGHT INFORMATION

Flight Status: Arrived
Operator: Privately registered:
United States
More flights under this callsign
Pilot: Jon B. (6096)
Aircraft: CESSNA 172 SKYHAWK
(C172)
More flights by this aircraft type
Origin: KLAX Los Angeles Intl
United States
Destination: KSAN San Diego Intl-Lindbergh
United States
More flights between these airports :: More routes between these airports
Route: +
File this flight plan on PilotEdge
Remarks: CAT11
Altitude:
(Current/Filed)
5,500ft
Speed:
(Current/Filed)
0kts
Departed: 30-Sep-17 06:59 PM
Arrived: 30-Sep-17 09:37 PM
Distance/Time
Traveled:
95nm/2:37
Distance/Time
To Go:
Arrived

Flight Plot

Page will automatically refresh every two minutes.


Map Options




Map Legend


Flown Route
Filed Route
Departure Airport
Arrival Airport
Navaid (VOR, NDB)
Fix

Horizontal Profiles

Position Reports

Time Latitude Longitude Heading Altitude Ground
Speed
30-Sep-17 18:53 33.932922 -118.399720 76 111ft 0kts
30-Sep-17 18:54 33.932923 -118.399715 76 111ft 0kts
30-Sep-17 18:55 33.932924 -118.399713 76 111ft 0kts
30-Sep-17 18:56 33.932924 -118.399711 76 111ft 0kts
30-Sep-17 18:57 33.934683 -118.397368 80 107ft 9kts
30-Sep-17 18:58 33.935040 -118.393779 87 102ft 15kts
30-Sep-17 18:59 33.935970 -118.384378 89 97ft 29kts
30-Sep-17 19:00 33.936405 -118.382824 22 95ft 0kts
30-Sep-17 19:01 33.936405 -118.382824 22 95ft 0kts
30-Sep-17 19:02 33.937294 -118.383453 256 95ft 13kts
30-Sep-17 19:03 33.935783 -118.395985 261 398ft 75kts
30-Sep-17 19:04 33.933184 -118.410554 255 946ft 75kts
30-Sep-17 19:05 33.931522 -118.426082 264 1499ft 76kts
30-Sep-17 19:06 33.929247 -118.442448 263 2113ft 71kts
30-Sep-17 19:07 33.927981 -118.458224 261 2656ft 72kts
30-Sep-17 19:08 33.925592 -118.475534 258 3004ft 89kts
30-Sep-17 19:09 33.921986 -118.496649 262 2933ft 108kts
30-Sep-17 19:10 33.920560 -118.518573 266 2908ft 100kts
30-Sep-17 19:11 33.916288 -118.537275 198 2974ft 94kts
30-Sep-17 19:12 33.896864 -118.529458 146 3004ft 103kts
30-Sep-17 19:13 33.878097 -118.514441 145 3026ft 114kts
30-Sep-17 19:14 33.858466 -118.499385 146 2966ft 114kts
30-Sep-17 19:15 33.839455 -118.484368 146 2934ft 114kts
30-Sep-17 19:16 33.820626 -118.469052 147 2962ft 110kts
30-Sep-17 19:17 33.801657 -118.453958 148 2978ft 115kts
30-Sep-17 19:18 33.782889 -118.439605 148 3030ft 115kts
30-Sep-17 19:19 33.766261 -118.425021 121 3168ft 105kts
30-Sep-17 19:20 33.759080 -118.406781 112 3465ft 105kts
30-Sep-17 19:21 33.752679 -118.386976 110 3494ft 113kts
30-Sep-17 19:22 33.745812 -118.366987 113 3531ft 112kts
30-Sep-17 19:23 33.738379 -118.346877 114 3532ft 112kts
30-Sep-17 19:24 33.730223 -118.326542 118 3481ft 116kts
30-Sep-17 19:25 33.719904 -118.305534 120 3468ft 115kts
30-Sep-17 19:26 33.707826 -118.284136 128 3463ft 114kts
30-Sep-17 19:27 33.693911 -118.262737 127 3441ft 114kts
30-Sep-17 19:28 33.680170 -118.240602 125 3488ft 111kts
30-Sep-17 19:29 33.666321 -118.218391 129 3447ft 114kts
30-Sep-17 19:30 33.650680 -118.196841 132 3433ft 114kts
30-Sep-17 19:31 33.635893 -118.175763 123 3442ft 115kts
30-Sep-17 19:32 33.625864 -118.153878 115 3512ft 109kts
30-Sep-17 19:33 33.615435 -118.128057 118 3453ft 113kts
30-Sep-17 19:34 33.603004 -118.102345 121 3428ft 112kts
30-Sep-17 19:35 33.591246 -118.077507 114 3493ft 106kts
30-Sep-17 19:36 33.582493 -118.051895 112 3471ft 111kts
30-Sep-17 19:37 33.568574 -118.027164 135 3461ft 113kts
30-Sep-17 19:38 33.546651 -118.005541 139 3463ft 112kts
30-Sep-17 19:39 33.525450 -117.983447 141 3501ft 108kts
30-Sep-17 19:40 33.504010 -117.962235 139 3521ft 112kts
30-Sep-17 19:41 33.482868 -117.939924 136 3579ft 112kts
30-Sep-17 19:42 33.460469 -117.918220 139 3513ft 113kts
30-Sep-17 19:43 33.439115 -117.895798 139 3449ft 114kts
30-Sep-17 19:44 33.417143 -117.874112 137 3416ft 112kts
30-Sep-17 19:45 33.395815 -117.852883 139 3518ft 110kts
30-Sep-17 19:46 33.373997 -117.830990 144 3481ft 113kts
30-Sep-17 19:47 33.352896 -117.809093 137 3471ft 114kts
30-Sep-17 19:48 33.331489 -117.787240 140 3461ft 114kts
30-Sep-17 19:49 33.309884 -117.765700 141 3469ft 113kts
30-Sep-17 19:50 33.288259 -117.744308 137 3465ft 113kts
30-Sep-17 19:51 33.266933 -117.722596 142 3455ft 114kts
30-Sep-17 19:52 33.245803 -117.701254 137 3474ft 112kts
30-Sep-17 19:53 33.224507 -117.680261 137 3474ft 114kts
30-Sep-17 19:54 33.204096 -117.658577 138 3477ft 113kts
30-Sep-17 19:55 33.182239 -117.637359 142 3471ft 113kts
30-Sep-17 19:56 33.160920 -117.616565 141 3463ft 114kts
30-Sep-17 19:57 33.140691 -117.595147 140 3456ft 114kts
30-Sep-17 19:58 33.119617 -117.574544 140 3464ft 113kts
30-Sep-17 19:59 33.098583 -117.554240 139 3467ft 113kts
30-Sep-17 20:00 33.078835 -117.533022 141 3461ft 113kts
30-Sep-17 20:01 33.057797 -117.512892 141 3453ft 114kts
30-Sep-17 20:02 33.037491 -117.492693 141 3455ft 113kts
30-Sep-17 20:03 33.018331 -117.472189 135 3464ft 113kts
30-Sep-17 20:04 33.000006 -117.451673 136 3451ft 114kts
30-Sep-17 20:05 32.979784 -117.432483 143 3450ft 114kts
30-Sep-17 20:30 33.932903 -118.399797 78 111ft 0kts
30-Sep-17 20:31 33.932903 -118.399797 78 111ft 0kts
30-Sep-17 20:32 33.932903 -118.399797 78 111ft 0kts
30-Sep-17 20:33 33.932909 -118.399761 78 111ft 1kts
30-Sep-17 20:34 33.934931 -118.394701 81 104ft 26kts
30-Sep-17 20:35 33.935823 -118.385944 83 98ft 35kts
30-Sep-17 20:36 33.936294 -118.382931 36 95ft 0kts
30-Sep-17 20:37 33.936136 -118.392333 258 231ft 78kts
30-Sep-17 20:38 33.931833 -118.418116 258 1112ft 79kts
30-Sep-17 20:39 33.929361 -118.444603 265 1968ft 80kts
30-Sep-17 20:40 33.918822 -118.457588 120 2721ft 86kts
30-Sep-17 20:41 33.905689 -118.433289 131 3460ft 89kts
30-Sep-17 20:42 33.884248 -118.409878 136 3512ft 117kts
30-Sep-17 20:43 33.859620 -118.383924 138 3519ft 120kts
30-Sep-17 20:44 33.834908 -118.357264 137 3493ft 122kts
30-Sep-17 20:45 33.809878 -118.331004 134 3384ft 121kts
30-Sep-17 20:46 33.786342 -118.305422 137 3366ft 112kts
30-Sep-17 20:47 33.763494 -118.280494 140 3455ft 114kts
30-Sep-17 20:48 33.739916 -118.254569 138 3485ft 116kts
30-Sep-17 20:49 33.716176 -118.228772 138 3517ft 114kts
30-Sep-17 20:50 33.691750 -118.203289 136 3443ft 117kts
30-Sep-17 20:51 33.667077 -118.177610 136 3326ft 118kts
30-Sep-17 20:52 33.644245 -118.151465 140 3409ft 111kts
30-Sep-17 20:53 33.620467 -118.126494 138 3419ft 113kts
30-Sep-17 20:54 33.596967 -118.101181 135 3457ft 113kts
30-Sep-17 20:55 33.572854 -118.076669 136 3489ft 113kts
30-Sep-17 20:56 33.549412 -118.051256 139 3507ft 114kts
30-Sep-17 20:57 33.525463 -118.026430 136 3529ft 114kts
30-Sep-17 20:58 33.502259 -118.000287 143 3544ft 114kts
30-Sep-17 20:59 33.477954 -117.974448 138 3527ft 115kts
30-Sep-17 21:00 33.453072 -117.948034 137 3381ft 115kts
30-Sep-17 21:01 33.430572 -117.922724 134 3389ft 108kts
30-Sep-17 21:02 33.408299 -117.898898 137 3540ft 108kts
30-Sep-17 21:03 33.384311 -117.874208 137 3499ft 115kts
30-Sep-17 21:04 33.359930 -117.849150 132 3379ft 112kts
30-Sep-17 21:05 33.338563 -117.822887 139 3426ft 110kts
30-Sep-17 21:06 33.314151 -117.800408 141 3532ft 114kts
30-Sep-17 21:07 33.289515 -117.774781 141 3403ft 115kts
30-Sep-17 21:08 33.266274 -117.749466 142 3439ft 111kts
30-Sep-17 21:09 33.242883 -117.724625 132 3444ft 112kts
30-Sep-17 21:10 33.219493 -117.699811 144 3400ft 112kts
30-Sep-17 21:11 33.196200 -117.675122 138 3438ft 111kts
30-Sep-17 21:12 33.172711 -117.651314 143 3505ft 112kts
30-Sep-17 21:13 33.146982 -117.630280 139 3448ft 114kts
30-Sep-17 21:14 33.122686 -117.605196 139 3423ft 116kts
30-Sep-17 21:15 33.097335 -117.581125 141 3331ft 116kts
30-Sep-17 21:16 33.074739 -117.555435 129 3381ft 115kts
30-Sep-17 21:17 33.053159 -117.527607 138 3445ft 113kts
30-Sep-17 21:18 33.029497 -117.501644 140 3458ft 115kts
30-Sep-17 21:19 33.002034 -117.483287 193 3350ft 114kts
30-Sep-17 21:20 32.981090 -117.462521 117 3198ft 108kts
30-Sep-17 21:21 32.962559 -117.433661 129 3452ft 98kts
30-Sep-17 21:22 32.941725 -117.407238 132 3512ft 113kts
30-Sep-17 21:23 32.917047 -117.382125 142 3380ft 119kts
30-Sep-17 21:24 32.894082 -117.357441 140 3363ft 115kts
30-Sep-17 21:25 32.869630 -117.333572 136 3336ft 115kts
30-Sep-17 21:26 32.844950 -117.308204 148 3267ft 117kts
30-Sep-17 21:27 32.823009 -117.279788 130 3161ft 123kts
30-Sep-17 21:28 32.797801 -117.258833 148 3182ft 120kts
30-Sep-17 21:29 32.772862 -117.234463 140 2540ft 117kts
30-Sep-17 21:30 32.748772 -117.211439 136 1374ft 115kts
30-Sep-17 21:31 32.734582 -117.183442 88 1441ft 105kts
30-Sep-17 21:32 32.749598 -117.184616 236 1253ft 116kts
30-Sep-17 21:33 32.723505 -117.191069 242 1593ft 103kts
30-Sep-17 21:34 32.705593 -117.220582 259 1834ft 111kts
30-Sep-17 21:35 32.718116 -117.243640 1 2022ft 108kts
30-Sep-17 21:36 32.739875 -117.233577 25 1848ft 107kts
30-Sep-17 21:37 32.751184 -117.213175 88 1526ft 106kts
30-Sep-17 21:38 32.751581 -117.187102 91 1268ft 99kts
30-Sep-17 21:39 32.746342 -117.168001 169 981ft 81kts
30-Sep-17 21:40 32.731049 -117.173408 249 344ft 68kts
30-Sep-17 21:41 32.733645 -117.190730 262 16ft 21kts
30-Sep-17 21:42 32.733110 -117.191422 321 16ft 0kts
30-Sep-17 21:43 32.733178 -117.192969 276 16ft 11kts

Navigation Log

Ident Type
1. KLAX Airport
2. KSAN Airport